Time,TemperatureF,DewpointF,PressureIn,WindDirection,WindDirectionDegrees,WindSpeedMPH,WindSpeedGustMPH,Humidity,HourlyPrecipIn,Conditions,Clouds,dailyrainin,SoftwareType,DateUTC
2013-08-24 00:03:00,62.0,56.0,-100.00,SE,145,3.0,8.0,81,0.00,,,0.00,,2013-08-24 05:03:00,
2013-08-24 00:13:00,62.0,56.0,-100.00,SE,145,3.0,8.0,81,0.00,,,0.00,,2013-08-24 05:13:00,
2013-08-24 00:23:00,62.0,56.0,-100.00,SE,145,3.0,8.0,81,0.00,,,0.00,,2013-08-24 05:23:00,
2013-08-24 00:53:00,60.0,55.0,-100.00,SE,130,3.0,6.0,84,0.00,,,0.00,,2013-08-24 05:53:00,
2013-08-24 01:02:00,60.0,55.0,-100.00,SE,130,3.0,6.0,84,0.00,,,0.00,,2013-08-24 06:02:00,
2013-08-24 01:12:00,60.0,55.0,-100.00,SE,130,3.0,6.0,84,0.00,,,0.00,,2013-08-24 06:12:00,
2013-08-24 01:22:00,60.0,55.0,-100.00,SE,130,3.0,6.0,84,0.00,,,0.00,,2013-08-24 06:22:00,
2013-08-24 01:52:00,59.0,54.0,-100.00,SSE,157,1.0,5.0,83,0.00,,,0.00,,2013-08-24 06:52:00,
2013-08-24 02:02:00,59.0,54.0,-100.00,SSE,157,1.0,5.0,83,0.00,,,0.00,,2013-08-24 07:02:00,
2013-08-24 02:12:00,59.0,54.0,-100.00,SSE,157,1.0,5.0,83,0.00,,,0.00,,2013-08-24 07:12:00,
2013-08-24 02:22:00,59.0,54.0,-100.00,SSE,157,1.0,5.0,83,0.00,,,0.00,,2013-08-24 07:22:00,
2013-08-24 02:53:00,58.0,54.0,-100.00,South,180,1.0,4.0,85,0.00,,,0.00,,2013-08-24 07:53:00,
2013-08-24 03:02:00,58.0,54.0,-100.00,South,180,1.0,4.0,85,0.00,,,0.00,,2013-08-24 08:02:00,
2013-08-24 03:12:00,58.0,54.0,-100.00,South,180,1.0,4.0,85,0.00,,,0.00,,2013-08-24 08:12:00,
2013-08-24 03:22:00,58.0,54.0,-100.00,South,180,1.0,4.0,85,0.00,,,0.00,,2013-08-24 08:22:00,
2013-08-24 03:52:00,58.0,52.0,-100.00,SE,138,2.0,3.0,79,0.00,,,0.00,,2013-08-24 08:52:00,
2013-08-24 04:01:00,58.0,52.0,-100.00,SE,138,2.0,3.0,79,0.00,,,0.00,,2013-08-24 09:01:00,
2013-08-24 04:11:00,58.0,52.0,-100.00,SE,138,2.0,3.0,79,0.00,,,0.00,,2013-08-24 09:11:00,
2013-08-24 04:22:00,58.0,52.0,-100.00,SE,138,2.0,3.0,79,0.00,,,0.00,,2013-08-24 09:22:00,
2013-08-24 04:53:00,58.0,48.0,-100.00,SE,146,4.0,5.0,70,0.00,,,0.00,,2013-08-24 09:53:00,
2013-08-24 05:03:00,58.0,48.0,-100.00,SE,146,4.0,5.0,70,0.00,,,0.00,,2013-08-24 10:03:00,
2013-08-24 05:13:00,58.0,48.0,-100.00,SE,146,4.0,5.0,70,0.00,,,0.00,,2013-08-24 10:13:00,
2013-08-24 05:23:00,58.0,48.0,-100.00,SE,146,4.0,5.0,70,0.00,,,0.00,,2013-08-24 10:23:00,
2013-08-24 05:53:00,57.0,51.0,-100.00,SE,146,1.0,6.0,79,0.00,,,0.00,,2013-08-24 10:53:00,
2013-08-24 06:02:00,57.0,51.0,-100.00,SE,146,1.0,6.0,79,0.00,,,0.00,,2013-08-24 11:02:00,
2013-08-24 06:12:00,57.0,51.0,-100.00,SE,146,1.0,6.0,79,0.00,,,0.00,,2013-08-24 11:12:00,
2013-08-24 06:22:00,57.0,51.0,-100.00,SE,146,1.0,6.0,79,0.00,,,0.00,,2013-08-24 11:22:00,
2013-08-24 06:52:00,55.0,51.0,-100.00,SSE,150,1.0,4.0,86,0.00,,,0.00,,2013-08-24 11:52:00,
2013-08-24 07:02:00,55.0,51.0,-100.00,SSE,150,1.0,4.0,86,0.00,,,0.00,,2013-08-24 12:02:00,
2013-08-24 07:12:00,55.0,51.0,-100.00,SSE,150,1.0,4.0,86,0.00,,,0.00,,2013-08-24 12:12:00,
2013-08-24 07:21:00,55.0,51.0,-100.00,SSE,150,1.0,4.0,86,0.00,,,0.00,,2013-08-24 12:21:00,
2013-08-24 07:52:00,61.0,54.0,-100.00,SE,139,5.0,11.0,78,0.00,,,0.00,,2013-08-24 12:52:00,
2013-08-24 08:02:00,61.0,54.0,-100.00,SE,139,5.0,11.0,78,0.00,,,0.00,,2013-08-24 13:02:00,
2013-08-24 08:11:00,61.0,54.0,-100.00,SE,139,5.0,11.0,78,0.00,,,0.00,,2013-08-24 13:11:00,
2013-08-24 08:22:00,61.0,54.0,-100.00,SE,139,5.0,11.0,78,0.00,,,0.00,,2013-08-24 13:22:00,
2013-08-24 08:52:00,68.0,59.0,-100.00,SSE,158,7.0,12.0,73,0.00,,,0.00,,2013-08-24 13:52:00,
2013-08-24 09:02:00,68.0,59.0,-100.00,SSE,158,7.0,12.0,73,0.00,,,0.00,,2013-08-24 14:02:00,
2013-08-24 09:11:00,68.0,59.0,-100.00,SSE,158,7.0,12.0,73,0.00,,,0.00,,2013-08-24 14:11:00,
2013-08-24 09:22:00,68.0,59.0,-100.00,SSE,158,7.0,12.0,73,0.00,,,0.00,,2013-08-24 14:22:00,
2013-08-24 09:52:00,73.0,58.0,-100.00,SSE,168,7.0,13.0,60,0.00,,,0.00,,2013-08-24 14:52:00,
2013-08-24 10:01:00,73.0,58.0,-100.00,SSE,168,7.0,13.0,60,0.00,,,0.00,,2013-08-24 15:01:00,
2013-08-24 10:12:00,73.0,58.0,-100.00,SSE,168,7.0,13.0,60,0.00,,,0.00,,2013-08-24 15:12:00,
2013-08-24 10:22:00,73.0,58.0,-100.00,SSE,168,7.0,13.0,60,0.00,,,0.00,,2013-08-24 15:22:00,
2013-08-24 10:54:00,76.0,59.0,-100.00,South,190,9.0,16.0,55,0.00,,,0.00,,2013-08-24 15:54:00,
2013-08-24 11:04:00,76.0,59.0,-100.00,South,190,9.0,16.0,55,0.00,,,0.00,,2013-08-24 16:04:00,
2013-08-24 11:13:00,76.0,59.0,-100.00,South,190,9.0,16.0,55,0.00,,,0.00,,2013-08-24 16:13:00,
2013-08-24 11:23:00,76.0,59.0,-100.00,South,190,9.0,16.0,55,0.00,,,0.00,,2013-08-24 16:23:00,
2013-08-24 11:53:00,77.0,60.0,-100.00,South,176,9.0,14.0,56,0.00,,,0.00,,2013-08-24 16:53:00,
2013-08-24 12:02:00,77.0,60.0,-100.00,South,176,9.0,14.0,56,0.00,,,0.00,,2013-08-24 17:02:00,
2013-08-24 12:12:00,77.0,60.0,-100.00,South,176,9.0,14.0,56,0.00,,,0.00,,2013-08-24 17:12:00,
2013-08-24 12:23:00,77.0,60.0,-100.00,South,176,9.0,14.0,56,0.00,,,0.00,,2013-08-24 17:23:00,
2013-08-24 12:52:00,79.0,60.0,-100.00,SSW,192,9.0,14.0,53,0.00,,,0.00,,2013-08-24 17:52:00,
2013-08-24 13:03:00,79.0,60.0,-100.00,SSW,192,9.0,14.0,53,0.00,,,0.00,,2013-08-24 18:03:00,
2013-08-24 13:13:00,79.0,60.0,-100.00,SSW,192,9.0,14.0,53,0.00,,,0.00,,2013-08-24 18:13:00,
2013-08-24 13:22:00,79.0,60.0,-100.00,SSW,192,9.0,14.0,53,0.00,,,0.00,,2013-08-24 18:22:00,
2013-08-24 13:53:00,81.0,60.0,-100.00,South,189,8.0,13.0,49,0.00,,,0.00,,2013-08-24 18:53:00,
2013-08-24 14:01:00,81.0,60.0,-100.00,South,189,8.0,13.0,49,0.00,,,0.00,,2013-08-24 19:01:00,
2013-08-24 14:12:00,81.0,60.0,-100.00,South,189,8.0,13.0,49,0.00,,,0.00,,2013-08-24 19:12:00,
2013-08-24 14:21:00,81.0,60.0,-100.00,South,189,8.0,13.0,49,0.00,,,0.00,,2013-08-24 19:21:00,
2013-08-24 14:52:00,82.0,63.0,-100.00,South,185,7.0,15.0,52,0.00,,,0.00,,2013-08-24 19:52:00,
2013-08-24 15:02:00,82.0,63.0,-100.00,South,185,7.0,15.0,52,0.00,,,0.00,,2013-08-24 20:02:00,
2013-08-24 15:11:00,82.0,63.0,-100.00,South,185,7.0,15.0,52,0.00,,,0.00,,2013-08-24 20:11:00,
2013-08-24 15:22:00,82.0,63.0,-100.00,South,185,7.0,15.0,52,0.00,,,0.00,,2013-08-24 20:22:00,
2013-08-24 15:52:00,82.0,64.0,-100.00,South,175,8.0,14.0,54,0.00,,,0.00,,2013-08-24 20:52:00,
2013-08-24 16:02:00,82.0,64.0,-100.00,South,175,8.0,14.0,54,0.00,,,0.00,,2013-08-24 21:02:00,
2013-08-24 16:11:00,82.0,64.0,-100.00,South,175,8.0,14.0,54,0.00,,,0.00,,2013-08-24 21:11:00,
2013-08-24 16:22:00,82.0,64.0,-100.00,South,175,8.0,14.0,54,0.00,,,0.00,,2013-08-24 21:22:00,
2013-08-24 16:55:00,82.0,64.0,-100.00,South,183,9.0,14.0,54,0.00,,,0.00,,2013-08-24 21:55:00,
2013-08-24 17:04:00,82.0,64.0,-100.00,South,183,9.0,14.0,54,0.00,,,0.00,,2013-08-24 22:04:00,
2013-08-24 17:14:00,82.0,64.0,-100.00,South,183,9.0,14.0,54,0.00,,,0.00,,2013-08-24 22:14:00,
2013-08-24 17:24:00,82.0,64.0,-100.00,South,183,9.0,14.0,54,0.00,,,0.00,,2013-08-24 22:24:00,
2013-08-24 17:53:00,81.0,66.0,-100.00,South,182,9.0,14.0,60,0.00,,,0.00,,2013-08-24 22:53:00,
2013-08-24 18:03:00,81.0,66.0,-100.00,South,182,9.0,14.0,60,0.00,,,0.00,,2013-08-24 23:03:00,
2013-08-24 18:12:00,81.0,66.0,-100.00,South,182,9.0,14.0,60,0.00,,,0.00,,2013-08-24 23:12:00,
2013-08-24 18:22:00,81.0,66.0,-100.00,South,182,9.0,14.0,60,0.00,,,0.00,,2013-08-24 23:22:00,
2013-08-24 18:53:00,79.0,67.0,-100.00,South,177,6.0,9.0,66,0.00,,,0.00,,2013-08-24 23:53:00,
2013-08-24 19:02:00,79.0,67.0,-100.00,South,177,6.0,9.0,66,0.00,,,0.00,,2013-08-25 00:02:00,
2013-08-24 19:12:00,79.0,67.0,-100.00,South,177,6.0,9.0,66,0.00,,,0.00,,2013-08-25 00:12:00,
2013-08-24 19:22:00,79.0,67.0,-100.00,South,177,6.0,9.0,66,0.00,,,0.00,,2013-08-25 00:22:00,
2013-08-24 19:52:00,76.0,66.0,-100.00,South,170,5.0,9.0,71,0.00,,,-99.99,,2013-08-25 00:52:00,
2013-08-24 20:01:00,76.0,66.0,-100.00,South,170,5.0,9.0,71,0.00,,,-99.99,,2013-08-25 01:01:00,
2013-08-24 20:11:00,76.0,66.0,-100.00,South,170,5.0,9.0,71,0.00,,,-99.99,,2013-08-25 01:11:00,
2013-08-24 20:22:00,76.0,66.0,-100.00,South,170,5.0,9.0,71,0.00,,,-99.99,,2013-08-25 01:22:00,
2013-08-24 20:52:00,73.0,65.0,-100.00,SSE,152,5.0,7.0,76,0.00,,,0.00,,2013-08-25 01:52:00,
2013-08-24 21:02:00,73.0,65.0,-100.00,SSE,152,5.0,7.0,76,0.00,,,0.00,,2013-08-25 02:02:00,
2013-08-24 21:11:00,73.0,65.0,-100.00,SSE,152,5.0,7.0,76,0.00,,,0.00,,2013-08-25 02:11:00,
2013-08-24 21:22:00,73.0,65.0,-100.00,SSE,152,5.0,7.0,76,0.00,,,0.00,,2013-08-25 02:22:00,
2013-08-24 21:52:00,72.0,63.0,-100.00,SSE,156,7.0,11.0,74,0.00,,,0.00,,2013-08-25 02:52:00,
2013-08-24 22:02:00,72.0,63.0,-100.00,SSE,156,7.0,11.0,74,0.00,,,0.00,,2013-08-25 03:02:00,
2013-08-24 22:11:00,72.0,63.0,-100.00,SSE,156,7.0,11.0,74,0.00,,,0.00,,2013-08-25 03:11:00,
2013-08-24 22:23:00,72.0,63.0,-100.00,SSE,156,7.0,11.0,74,0.00,,,0.00,,2013-08-25 03:23:00,
2013-08-24 22:54:00,71.0,63.0,-100.00,SSE,155,7.0,9.0,75,0.00,,,0.00,,2013-08-25 03:54:00,
2013-08-24 23:02:00,-999.0,-99.9,-100.00,SSE,155,7.0,9.0,-999,-99.99,,,-99.99,,2013-08-25 04:02:00,
2013-08-24 23:14:00,71.0,63.0,-100.00,SSE,155,7.0,9.0,75,0.00,,,0.00,,2013-08-25 04:14:00,
2013-08-24 23:25:00,71.0,63.0,-100.00,SSE,155,7.0,9.0,75,0.00,,,0.00,,2013-08-25 04:25:00,
2013-08-24 23:54:00,70.0,61.0,-100.00,SSE,161,6.0,12.0,74,0.00,,,0.00,,2013-08-25 04:54:00,